sensor_id;sensor_type;location;lat;lon;timestamp;pressure;altitude;pressure_sealevel;temperature;humidity
60089;BME280;45961;53.574;55.878;2023-01-27T00:00:12;100781.38;;;-9.24;78.70
60089;BME280;45961;53.574;55.878;2023-01-27T00:01:14;100791.84;;;-9.19;78.50
60089;BME280;45961;53.574;55.878;2023-01-27T00:02:15;100784.91;;;-9.22;78.37
60089;BME280;45961;53.574;55.878;2023-01-27T00:03:16;100792.56;;;-9.29;78.09
60089;BME280;45961;53.574;55.878;2023-01-27T00:04:17;100795.06;;;-9.29;78.24
60089;BME280;45961;53.574;55.878;2023-01-27T00:05:18;100792.72;;;-9.27;78.15
60089;BME280;45961;53.574;55.878;2023-01-27T00:06:19;100787.56;;;-9.20;78.15
60089;BME280;45961;53.574;55.878;2023-01-27T00:07:20;100785.66;;;-9.23;78.17
60089;BME280;45961;53.574;55.878;2023-01-27T00:08:21;100789.78;;;-9.23;77.93
60089;BME280;45961;53.574;55.878;2023-01-27T00:09:22;100789.34;;;-9.28;77.82
60089;BME280;45961;53.574;55.878;2023-01-27T00:10:23;100790.34;;;-9.26;77.87
60089;BME280;45961;53.574;55.878;2023-01-27T00:11:23;100789.91;;;-9.22;77.75
60089;BME280;45961;53.574;55.878;2023-01-27T00:12:43;100792.28;;;-9.23;77.75
60089;BME280;45961;53.574;55.878;2023-01-27T00:14:03;100786.66;;;-9.21;77.72
60089;BME280;45961;53.574;55.878;2023-01-27T00:15:04;100786.22;;;-9.25;77.94
60089;BME280;45961;53.574;55.878;2023-01-27T00:16:05;100793.59;;;-9.18;77.82
60089;BME280;45961;53.574;55.878;2023-01-27T00:17:06;100789.78;;;-9.14;77.72
60089;BME280;45961;53.574;55.878;2023-01-27T00:18:09;100787.28;;;-9.23;77.64
60089;BME280;45961;53.574;55.878;2023-01-27T00:19:10;100791.97;;;-9.26;77.77
60089;BME280;45961;53.574;55.878;2023-01-27T00:20:11;100791.09;;;-9.27;77.74
60089;BME280;45961;53.574;55.878;2023-01-27T00:21:12;100792.56;;;-9.29;77.82
60089;BME280;45961;53.574;55.878;2023-01-27T00:22:31;100784.91;;;-9.22;77.94
60089;BME280;45961;53.574;55.878;2023-01-27T00:23:50;100787.56;;;-9.20;77.81
60089;BME280;45961;53.574;55.878;2023-01-27T00:25:10;100786.22;;;-9.25;77.63
60089;BME280;45961;53.574;55.878;2023-01-27T00:26:11;100793.75;;;-9.34;77.75
60089;BME280;45961;53.574;55.878;2023-01-27T00:27:14;100792.72;;;-9.27;77.72
60089;BME280;45961;53.574;55.878;2023-01-27T00:28:15;100794.50;;;-9.26;77.61
60089;BME280;45961;53.574;55.878;2023-01-27T00:29:22;100791.41;;;-9.24;77.56
60089;BME280;45961;53.574;55.878;2023-01-27T00:30:23;100795.53;;;-9.15;77.39
60089;BME280;45961;53.574;55.878;2023-01-27T00:31:23;100795.22;;;-9.18;77.29
60089;BME280;45961;53.574;55.878;2023-01-27T00:32:43;100790.09;;;-9.20;77.16
60089;BME280;45961;53.574;55.878;2023-01-27T00:34:03;100784.31;;;-9.19;77.15
60089;BME280;45961;53.574;55.878;2023-01-27T00:35:08;100783.72;;;-9.16;77.05
60089;BME280;45961;53.574;55.878;2023-01-27T00:36:09;100797.13;;;-9.33;76.91
60089;BME280;45961;53.574;55.878;2023-01-27T00:37:09;100791.69;;;-9.29;77.06
60089;BME280;45961;53.574;55.878;2023-01-27T00:38:10;100794.63;;;-9.25;77.15
60089;BME280;45961;53.574;55.878;2023-01-27T00:39:11;100790.97;;;-9.28;76.96
60089;BME280;45961;53.574;55.878;2023-01-27T00:40:13;100789.63;;;-9.25;77.11
60089;BME280;45961;53.574;55.878;2023-01-27T00:41:15;100789.47;;;-9.26;76.80
60089;BME280;45961;53.574;55.878;2023-01-27T00:42:18;100792.00;;;-9.35;76.82
60089;BME280;45961;53.574;55.878;2023-01-27T00:43:19;100786.22;;;-9.34;77.07
60089;BME280;45961;53.574;55.878;2023-01-27T00:44:20;100786.69;;;-9.38;77.04
60089;BME280;45961;53.574;55.878;2023-01-27T00:45:23;100788.44;;;-9.37;77.11
60089;BME280;45961;53.574;55.878;2023-01-27T00:46:42;100788.59;;;-9.44;77.14
60089;BME280;45961;53.574;55.878;2023-01-27T00:47:43;100793.59;;;-9.53;77.17
60089;BME280;45961;53.574;55.878;2023-01-27T00:48:43;100785.22;;;-9.45;77.32
60089;BME280;45961;53.574;55.878;2023-01-27T00:49:44;100783.56;;;-9.53;77.50
60089;BME280;45961;53.574;55.878;2023-01-27T00:50:45;100793.00;;;-9.50;77.66
60089;BME280;45961;53.574;55.878;2023-01-27T00:51:46;100788.56;;;-9.53;77.74
60089;BME280;45961;53.574;55.878;2023-01-27T00:52:47;100794.50;;;-9.52;77.80
60089;BME280;45961;53.574;55.878;2023-01-27T00:53:47;100787.69;;;-9.53;77.82
60089;BME280;45961;53.574;55.878;2023-01-27T00:54:50;100789.75;;;-9.58;78.07
60089;BME280;45961;53.574;55.878;2023-01-27T00:55:51;100792.56;;;-9.63;78.38
60089;BME280;45961;53.574;55.878;2023-01-27T00:56:52;100794.63;;;-9.59;78.47
60089;BME280;45961;53.574;55.878;2023-01-27T00:57:53;100787.56;;;-9.55;78.68
60089;BME280;45961;53.574;55.878;2023-01-27T00:58:54;100792.13;;;-9.51;78.63
60089;BME280;45961;53.574;55.878;2023-01-27T00:59:54;100786.50;;;-9.57;78.50
60089;BME280;45961;53.574;55.878;2023-01-27T01:00:56;100784.59;;;-9.51;78.67
60089;BME280;45961;53.574;55.878;2023-01-27T01:01:58;100789.31;;;-9.45;78.66
60089;BME280;45961;53.574;55.878;2023-01-27T01:03:15;100780.91;;;-9.46;78.71
60089;BME280;45961;53.574;55.878;2023-01-27T01:04:15;100785.50;;;-9.50;78.63
60089;BME280;45961;53.574;55.878;2023-01-27T01:05:16;100782.25;;;-9.49;78.64
60089;BME280;45961;53.574;55.878;2023-01-27T01:06:17;100779.59;;;-9.51;78.73
60089;BME280;45961;53.574;55.878;2023-01-27T01:07:21;100780.03;;;-9.55;78.77
60089;BME280;45961;53.574;55.878;2023-01-27T01:08:22;100785.94;;;-9.54;78.78
60089;BME280;45961;53.574;55.878;2023-01-27T01:09:23;100782.69;;;-9.62;78.98
60089;BME280;45961;53.574;55.878;2023-01-27T01:10:24;100783.72;;;-9.60;79.13
60089;BME280;45961;53.574;55.878;2023-01-27T01:11:25;100776.47;;;-9.57;79.19
60089;BME280;45961;53.574;55.878;2023-01-27T01:12:26;100774.84;;;-9.65;79.13
60089;BME280;45961;53.574;55.878;2023-01-27T01:13:27;100774.16;;;-9.73;79.28
60089;BME280;45961;53.574;55.878;2023-01-27T01:14:28;100769.56;;;-9.68;79.48
60089;BME280;45961;53.574;55.878;2023-01-27T01:15:30;100772.06;;;-9.68;79.55
60089;BME280;45961;53.574;55.878;2023-01-27T01:16:34;100775.03;;;-9.63;79.58
60089;BME280;45961;53.574;55.878;2023-01-27T01:17:35;100775.28;;;-9.69;79.53
60089;BME280;45961;53.574;55.878;2023-01-27T01:18:35;100776.03;;;-9.70;79.69
60089;BME280;45961;53.574;55.878;2023-01-27T01:19:37;100775.72;;;-9.73;79.85
60089;BME280;45961;53.574;55.878;2023-01-27T01:20:39;100772.78;;;-9.78;79.97
60089;BME280;45961;53.574;55.878;2023-01-27T01:21:41;100778.69;;;-9.77;79.93
60089;BME280;45961;53.574;55.878;2023-01-27T01:22:41;100778.84;;;-9.67;80.01
60089;BME280;45961;53.574;55.878;2023-01-27T01:23:43;100773.22;;;-9.73;79.96
60089;BME280;45961;53.574;55.878;2023-01-27T01:24:44;100772.78;;;-9.78;79.92
60089;BME280;45961;53.574;55.878;2023-01-27T01:25:53;100770.28;;;-9.78;79.73
60089;BME280;45961;53.574;55.878;2023-01-27T01:26:54;100767.34;;;-9.82;80.19
60089;BME280;45961;53.574;55.878;2023-01-27T01:27:54;100772.91;;;-9.85;80.14
60089;BME280;45961;53.574;55.878;2023-01-27T01:28:55;100780.84;;;-9.98;80.31
60089;BME280;45961;53.574;55.878;2023-01-27T01:29:56;100781.72;;;-9.97;80.42
60089;BME280;45961;53.574;55.878;2023-01-27T01:31:02;100775.72;;;-9.90;80.56
60089;BME280;45961;53.574;55.878;2023-01-27T01:32:03;100777.78;;;-9.86;80.44
60089;BME280;45961;53.574;55.878;2023-01-27T01:33:09;100778.97;;;-9.83;80.28
60089;BME280;45961;53.574;55.878;2023-01-27T01:34:10;100781.59;;;-9.90;80.16
60089;BME280;45961;53.574;55.878;2023-01-27T01:35:11;100780.28;;;-9.95;80.10
60089;BME280;45961;53.574;55.878;2023-01-27T01:36:14;100778.50;;;-9.96;80.14
60089;BME280;45961;53.574;55.878;2023-01-27T01:37:16;100778.53;;;-9.87;80.03
60089;BME280;45961;53.574;55.878;2023-01-27T01:38:16;100771.28;;;-9.93;79.91
60089;BME280;45961;53.574;55.878;2023-01-27T01:39:17;100773.22;;;-9.90;79.94
60089;BME280;45961;53.574;55.878;2023-01-27T01:40:18;100775.13;;;-9.97;79.92
60089;BME280;45961;53.574;55.878;2023-01-27T01:41:19;100775.13;;;-9.97;79.90
60089;BME280;45961;53.574;55.878;2023-01-27T01:42:20;100774.22;;;-9.97;79.85
60089;BME280;45961;53.574;55.878;2023-01-27T01:43:21;100767.19;;;-9.92;79.89
60089;BME280;45961;53.574;55.878;2023-01-27T01:44:23;100774.81;;;-10.00;79.92
60089;BME280;45961;53.574;55.878;2023-01-27T01:45:36;100768.94;;;-10.00;79.79
60089;BME280;45961;53.574;55.878;2023-01-27T01:46:39;100769.38;;;-10.04;80.00
60089;BME280;45961;53.574;55.878;2023-01-27T01:47:42;100772.88;;;-10.02;79.99
60089;BME280;45961;53.574;55.878;2023-01-27T01:49:47;100775.81;;;-10.06;79.99
60089;BME280;45961;53.574;55.878;2023-01-27T01:50:55;100776.25;;;-10.10;80.10
60089;BME280;45961;53.574;55.878;2023-01-27T01:51:59;100771.00;;;-10.05;80.08
60089;BME280;45961;53.574;55.878;2023-01-27T01:53:02;100782.56;;;-10.14;80.39
60089;BME280;45961;53.574;55.878;2023-01-27T01:54:07;100773.75;;;-10.10;80.44
60089;BME280;45961;53.574;55.878;2023-01-27T01:55:08;100771.09;;;-10.12;80.51
60089;BME280;45961;53.574;55.878;2023-01-27T01:56:11;100768.75;;;-10.10;80.65
60089;BME280;45961;53.574;55.878;2023-01-27T01:58:17;100765.97;;;-10.05;80.57
60089;BME280;45961;53.574;55.878;2023-01-27T01:59:54;100769.63;;;-10.10;80.65
60089;BME280;45961;53.574;55.878;2023-01-27T02:00:47;100765.06;;;-10.05;80.63
60089;BME280;45961;53.574;55.878;2023-01-27T02:01:49;100772.31;;;-10.00;80.66
60089;BME280;45961;53.574;55.878;2023-01-27T02:02:50;100771.00;;;-9.96;80.64
60089;BME280;45961;53.574;55.878;2023-01-27T02:03:52;100767.88;;;-9.94;80.47
60089;BME280;45961;53.574;55.878;2023-01-27T02:04:57;100772.44;;;-9.98;80.38
60089;BME280;45961;53.574;55.878;2023-01-27T02:05:59;100770.69;;;-9.99;80.57
60089;BME280;45961;53.574;55.878;2023-01-27T02:07:10;100762.44;;;-9.98;80.59
60089;BME280;45961;53.574;55.878;2023-01-27T02:08:17;100775.69;;;-9.99;80.58
60089;BME280;45961;53.574;55.878;2023-01-27T02:09:20;100764.63;;;-10.01;80.80
60089;BME280;45961;53.574;55.878;2023-01-27T02:10:21;100762.44;;;-9.98;80.88
60089;BME280;45961;53.574;55.878;2023-01-27T02:11:22;100757.75;;;-9.95;80.88
60089;BME280;45961;53.574;55.878;2023-01-27T02:12:23;100764.81;;;-9.91;80.88
60089;BME280;45961;53.574;55.878;2023-01-27T02:13:24;100774.53;;;-9.94;80.82
60089;BME280;45961;53.574;55.878;2023-01-27T02:14:24;100778.97;;;-9.91;80.78
60089;BME280;45961;53.574;55.878;2023-01-27T02:15:27;100777.78;;;-9.86;80.81
60089;BME280;45961;53.574;55.878;2023-01-27T02:16:28;100773.66;;;-9.95;80.67
60089;BME280;45961;53.574;55.878;2023-01-27T02:17:31;100775.84;;;-9.98;80.75
60089;BME280;45961;53.574;55.878;2023-01-27T02:18:32;100779.22;;;-10.06;80.77
60089;BME280;45961;53.574;55.878;2023-01-27T02:20:43;100774.22;;;-9.97;80.76
60089;BME280;45961;53.574;55.878;2023-01-27T02:21:45;100779.41;;;-9.96;80.75
60089;BME280;45961;53.574;55.878;2023-01-27T02:22:49;100775.28;;;-9.86;80.58
60089;BME280;45961;53.574;55.878;2023-01-27T02:24:52;100777.03;;;-9.94;80.38
60089;BME280;45961;53.574;55.878;2023-01-27T02:26:04;100778.97;;;-9.91;80.38
60089;BME280;45961;53.574;55.878;2023-01-27T02:27:07;100774.97;;;-9.89;80.46
60089;BME280;45961;53.574;55.878;2023-01-27T02:28:08;100780.84;;;-9.98;80.28
60089;BME280;45961;53.574;55.878;2023-01-27T02:29:10;100783.94;;;-10.00;80.32
60089;BME280;45961;53.574;55.878;2023-01-27T02:30:11;100774.22;;;-9.97;80.47
60089;BME280;45961;53.574;55.878;2023-01-27T02:31:12;100778.94;;;-10.00;80.45
60089;BME280;45961;53.574;55.878;2023-01-27T02:32:25;100781.72;;;-9.97;80.48
60089;BME280;45961;53.574;55.878;2023-01-27T02:33:28;100776.72;;;-9.97;80.46
60089;BME280;45961;53.574;55.878;2023-01-27T02:34:30;100782.34;;;-10.00;80.44
60089;BME280;45961;53.574;55.878;2023-01-27T02:35:38;100791.03;;;-9.96;80.45
60089;BME280;45961;53.574;55.878;2023-01-27T02:36:42;100789.84;;;-10.00;80.42
60089;BME280;45961;53.574;55.878;2023-01-27T02:37:44;100792.34;;;-10.00;80.52
60089;BME280;45961;53.574;55.878;2023-01-27T02:38:47;100792.47;;;-10.07;80.62
60089;BME280;45961;53.574;55.878;2023-01-27T02:39:49;100789.09;;;-9.99;80.68
60089;BME280;45961;53.574;55.878;2023-01-27T02:40:52;100783.34;;;-9.98;80.67
60089;BME280;45961;53.574;55.878;2023-01-27T02:41:55;100791.91;;;-10.04;80.65
60089;BME280;45961;53.574;55.878;2023-01-27T02:42:57;100789.66;;;-10.01;80.50
60089;BME280;45961;53.574;55.878;2023-01-27T02:43:58;100795.84;;;-10.06;80.79
60089;BME280;45961;53.574;55.878;2023-01-27T02:44:59;100797.19;;;-10.01;80.96
60089;BME280;45961;53.574;55.878;2023-01-27T02:46:00;100795.00;;;-9.98;80.97
60089;BME280;45961;53.574;55.878;2023-01-27T02:47:01;100793.53;;;-9.96;81.01
60089;BME280;45961;53.574;55.878;2023-01-27T02:48:02;100781.28;;;-9.93;81.11
60089;BME280;45961;53.574;55.878;2023-01-27T02:49:03;100779.84;;;-9.91;80.92
60089;BME280;45961;53.574;55.878;2023-01-27T02:50:04;100782.03;;;-10.03;81.17
60089;BME280;45961;53.574;55.878;2023-01-27T02:51:06;100783.34;;;-9.98;81.20
60089;BME280;45961;53.574;55.878;2023-01-27T02:52:08;100782.78;;;-9.95;81.23
60089;BME280;45961;53.574;55.878;2023-01-27T02:53:09;100785.16;;;-9.97;81.47
60089;BME280;45961;53.574;55.878;2023-01-27T02:54:10;100785.41;;;-9.94;81.28
60089;BME280;45961;53.574;55.878;2023-01-27T02:55:11;100789.66;;;-10.01;81.46
60089;BME280;45961;53.574;55.878;2023-01-27T02:56:13;100788.22;;;-9.99;81.50
60089;BME280;45961;53.574;55.878;2023-01-27T02:57:15;100788.97;;;-9.91;81.58
60089;BME280;45961;53.574;55.878;2023-01-27T02:58:28;100788.97;;;-9.91;81.60
60089;BME280;45961;53.574;55.878;2023-01-27T02:59:39;100798.69;;;-9.95;81.22
60089;BME280;45961;53.574;55.878;2023-01-27T03:00:40;100796.31;;;-10.02;81.13
60089;BME280;45961;53.574;55.878;2023-01-27T03:01:41;100792.34;;;-10.00;81.23
60089;BME280;45961;53.574;55.878;2023-01-27T03:02:42;100796.59;;;-10.07;81.34
60089;BME280;45961;53.574;55.878;2023-01-27T03:03:42;100794.41;;;-10.04;81.36
60089;BME280;45961;53.574;55.878;2023-01-27T03:04:46;100792.16;;;-10.01;81.37
60089;BME280;45961;53.574;55.878;2023-01-27T03:05:48;100794.25;;;-9.97;81.36
60089;BME280;45961;53.574;55.878;2023-01-27T03:06:53;100788.34;;;-10.06;81.40
60089;BME280;45961;53.574;55.878;2023-01-27T03:07:55;100794.41;;;-9.96;81.34
60089;BME280;45961;53.574;55.878;2023-01-27T03:08:55;100793.22;;;-9.99;81.23
60089;BME280;45961;53.574;55.878;2023-01-27T03:09:56;100796.91;;;-9.96;81.14
60089;BME280;45961;53.574;55.878;2023-01-27T03:10:57;100784.84;;;-10.00;81.09
60089;BME280;45961;53.574;55.878;2023-01-27T03:11:58;100795.72;;;-9.99;81.22
60089;BME280;45961;53.574;55.878;2023-01-27T03:13:23;100789.84;;;-10.00;81.24
60089;BME280;45961;53.574;55.878;2023-01-27T03:14:26;100788.97;;;-9.91;81.20
60089;BME280;45961;53.574;55.878;2023-01-27T03:15:47;100804.44;;;-9.96;81.11
60089;BME280;45961;53.574;55.878;2023-01-27T03:17:06;100794.84;;;-10.00;81.20
60089;BME280;45961;53.574;55.878;2023-01-27T03:18:26;100802.06;;;-10.03;81.24
60089;BME280;45961;53.574;55.878;2023-01-27T03:19:27;100806.03;;;-10.05;81.30
60089;BME280;45961;53.574;55.878;2023-01-27T03:20:29;100802.94;;;-10.02;81.29
60089;BME280;45961;53.574;55.878;2023-01-27T03:21:29;100801.94;;;-9.96;81.25
60089;BME280;45961;53.574;55.878;2023-01-27T03:22:30;100801.63;;;-9.99;81.21
60089;BME280;45961;53.574;55.878;2023-01-27T03:23:31;100807.50;;;-9.98;81.11
60089;BME280;45961;53.574;55.878;2023-01-27T03:24:35;100800.13;;;-10.05;81.07
60089;BME280;45961;53.574;55.878;2023-01-27T03:25:40;100808.53;;;-10.05;80.87
60089;BME280;45961;53.574;55.878;2023-01-27T03:26:41;100811.19;;;-10.03;80.98
60089;BME280;45961;53.574;55.878;2023-01-27T03:27:44;100808.53;;;-10.05;80.97
60089;BME280;45961;53.574;55.878;2023-01-27T03:28:59;100807.47;;;-10.07;81.02
60089;BME280;45961;53.574;55.878;2023-01-27T03:30:18;100807.63;;;-10.05;80.95
60089;BME280;45961;53.574;55.878;2023-01-27T03:31:28;100810.31;;;-10.04;80.72
60089;BME280;45961;53.574;55.878;2023-01-27T03:32:34;100808.53;;;-10.05;80.55
60089;BME280;45961;53.574;55.878;2023-01-27T03:33:56;100813.81;;;-10.10;80.75
60089;BME280;45961;53.574;55.878;2023-01-27T03:35:06;100802.47;;;-10.07;80.84
60089;BME280;45961;53.574;55.878;2023-01-27T03:36:09;100806.03;;;-10.05;80.72
60089;BME280;45961;53.574;55.878;2023-01-27T03:37:29;100806.03;;;-10.05;80.72
60089;BME280;45961;53.574;55.878;2023-01-27T03:38:49;100812.19;;;-10.10;80.73
60089;BME280;45961;53.574;55.878;2023-01-27T03:40:08;100810.88;;;-10.06;80.73
60089;BME280;45961;53.574;55.878;2023-01-27T03:41:28;100817.50;;;-10.07;80.68
60089;BME280;45961;53.574;55.878;2023-01-27T03:42:51;100814.84;;;-10.08;80.66
60089;BME280;45961;53.574;55.878;2023-01-27T03:44:10;100817.50;;;-10.07;80.70
60089;BME280;45961;53.574;55.878;2023-01-27T03:45:29;100827.09;;;-10.03;80.58
60089;BME280;45961;53.574;55.878;2023-01-27T03:46:48;100825.22;;;-9.97;80.56
60089;BME280;45961;53.574;55.878;2023-01-27T03:47:50;100829.91;;;-10.00;80.46
60089;BME280;45961;53.574;55.878;2023-01-27T03:48:52;100829.31;;;-9.97;80.49
60089;BME280;45961;53.574;55.878;2023-01-27T03:49:53;100835.03;;;-9.98;80.44
60089;BME280;45961;53.574;55.878;2023-01-27T03:50:57;100834.91;;;-10.00;80.40
60089;BME280;45961;53.574;55.878;2023-01-27T03:51:58;100834.75;;;-10.01;80.34
60089;BME280;45961;53.574;55.878;2023-01-27T03:52:58;100837.25;;;-10.01;80.47
60089;BME280;45961;53.574;55.878;2023-01-27T03:54:05;100831.66;;;-9.99;80.32
60089;BME280;45961;53.574;55.878;2023-01-27T03:55:07;100835.22;;;-9.97;80.17
60089;BME280;45961;53.574;55.878;2023-01-27T03:56:08;100849.31;;;-10.06;80.27
60089;BME280;45961;53.574;55.878;2023-01-27T03:57:09;100839.28;;;-10.06;80.41
60089;BME280;45961;53.574;55.878;2023-01-27T03:58:16;100835.75;;;-10.08;80.45
60089;BME280;45961;53.574;55.878;2023-01-27T04:02:11;100827.41;;;-10.00;80.45
60089;BME280;45961;53.574;55.878;2023-01-27T04:08:23;100842.41;;;-10.00;80.27
60089;BME280;45961;53.574;55.878;2023-01-27T04:09:31;100836.97;;;-9.96;80.20
60089;BME280;45961;53.574;55.878;2023-01-27T04:10:33;100846.25;;;-9.95;80.28
60089;BME280;45961;53.574;55.878;2023-01-27T04:11:34;100840.81;;;-9.99;80.21
60089;BME280;45961;53.574;55.878;2023-01-27T04:12:53;100839.19;;;-9.99;80.05
60089;BME280;45961;53.574;55.878;2023-01-27T04:13:54;100838.44;;;-9.98;80.23
60089;BME280;45961;53.574;55.878;2023-01-27T04:14:55;100833.56;;;-10.05;80.12
60089;BME280;45961;53.574;55.878;2023-01-27T04:15:56;100834.16;;;-9.99;80.30
60089;BME280;45961;53.574;55.878;2023-01-27T04:16:58;100836.34;;;-10.02;80.24
60089;BME280;45961;53.574;55.878;2023-01-27T04:17:59;100828.13;;;-10.01;80.21
60089;BME280;45961;53.574;55.878;2023-01-27T04:19:00;100834.63;;;-9.94;80.31
60089;BME280;45961;53.574;55.878;2023-01-27T04:20:01;100828.56;;;-10.05;80.31
60089;BME280;45961;53.574;55.878;2023-01-27T04:21:03;100836.25;;;-9.95;80.36
60089;BME280;45961;53.574;55.878;2023-01-27T04:22:04;100836.25;;;-9.95;80.26
60089;BME280;45961;53.574;55.878;2023-01-27T04:23:05;100844.63;;;-9.94;80.10
60089;BME280;45961;53.574;55.878;2023-01-27T04:24:06;100845.94;;;-9.98;80.22
60089;BME280;45961;53.574;55.878;2023-01-27T04:25:08;100839.06;;;-9.91;80.36
60089;BME280;45961;53.574;55.878;2023-01-27T04:26:09;100838.47;;;-9.89;80.37
60089;BME280;45961;53.574;55.878;2023-01-27T04:27:10;100839.94;;;-9.91;80.11
60089;BME280;45961;53.574;55.878;2023-01-27T04:28:15;100838.88;;;-9.93;80.12
60089;BME280;45961;53.574;55.878;2023-01-27T04:29:18;100832.56;;;-9.89;80.07
60089;BME280;45961;53.574;55.878;2023-01-27T04:30:19;100832.00;;;-9.87;80.12
60089;BME280;45961;53.574;55.878;2023-01-27T04:31:20;100833.19;;;-9.83;79.97
60089;BME280;45961;53.574;55.878;2023-01-27T04:32:21;100835.84;;;-9.82;79.97
60089;BME280;45961;53.574;55.878;2023-01-27T04:33:21;100834.94;;;-9.82;79.85
60089;BME280;45961;53.574;55.878;2023-01-27T04:34:23;100834.22;;;-9.81;79.96
60089;BME280;45961;53.574;55.878;2023-01-27T04:35:24;100843.22;;;-9.83;79.79
60089;BME280;45961;53.574;55.878;2023-01-27T04:36:24;100839.66;;;-9.85;79.79
60089;BME280;45961;53.574;55.878;2023-01-27T04:37:25;100834.22;;;-9.81;79.88
60089;BME280;45961;53.574;55.878;2023-01-27T04:38:26;100843.94;;;-9.84;79.80
60089;BME280;45961;53.574;55.878;2023-01-27T04:39:27;100848.03;;;-9.94;79.75
60089;BME280;45961;53.574;55.878;2023-01-27T04:40:28;100854.97;;;-9.91;80.00
60089;BME280;45961;53.574;55.878;2023-01-27T04:41:28;100849.66;;;-9.85;80.01
60089;BME280;45961;53.574;55.878;2023-01-27T04:42:29;100848.19;;;-9.92;79.91
60089;BME280;45961;53.574;55.878;2023-01-27T04:43:30;100844.94;;;-9.91;79.94
60089;BME280;45961;53.574;55.878;2023-01-27T04:44:30;100844.38;;;-9.88;79.95
60089;BME280;45961;53.574;55.878;2023-01-27T04:45:34;100847.91;;;-9.86;79.92
60089;BME280;45961;53.574;55.878;2023-01-27T04:46:34;100843.47;;;-9.89;79.90
60089;BME280;45961;53.574;55.878;2023-01-27T04:47:35;100840.53;;;-9.85;79.76
60089;BME280;45961;53.574;55.878;2023-01-27T04:48:37;100836.88;;;-9.80;79.62
60089;BME280;45961;53.574;55.878;2023-01-27T04:49:37;100845.41;;;-9.86;79.48
60089;BME280;45961;53.574;55.878;2023-01-27T04:50:38;100855.41;;;-9.86;79.54
60089;BME280;45961;53.574;55.878;2023-01-27T04:51:41;100844.38;;;-9.88;79.62
60089;BME280;45961;53.574;55.878;2023-01-27T04:52:42;100842.59;;;-9.89;79.58
60089;BME280;45961;53.574;55.878;2023-01-27T04:53:44;100845.41;;;-9.86;79.63
60089;BME280;45961;53.574;55.878;2023-01-27T04:54:45;100846.59;;;-9.83;79.66
60089;BME280;45961;53.574;55.878;2023-01-27T04:55:47;100844.84;;;-9.84;79.59
60089;BME280;45961;53.574;55.878;2023-01-27T04:56:55;100849.41;;;-9.80;79.56
60089;BME280;45961;53.574;55.878;2023-01-27T04:57:56;100844.09;;;-9.74;79.52
60089;BME280;45961;53.574;55.878;2023-01-27T04:58:57;100853.81;;;-9.77;79.45
60089;BME280;45961;53.574;55.878;2023-01-27T04:59:58;100848.22;;;-9.83;79.42
60089;BME280;45961;53.574;55.878;2023-01-27T05:00:59;100847.16;;;-9.85;79.32
60089;BME280;45961;53.574;55.878;2023-01-27T05:02:00;100845.72;;;-9.75;79.50
60089;BME280;45961;53.574;55.878;2023-01-27T05:03:01;100845.75;;;-9.66;79.30
60089;BME280;45961;53.574;55.878;2023-01-27T05:04:04;100838.41;;;-9.64;79.20
60089;BME280;45961;53.574;55.878;2023-01-27T05:05:05;100833.38;;;-9.64;79.16
60089;BME280;45961;53.574;55.878;2023-01-27T05:06:06;100843.69;;;-9.70;79.21
60089;BME280;45961;53.574;55.878;2023-01-27T05:07:07;100843.56;;;-9.63;79.03
60089;BME280;45961;53.574;55.878;2023-01-27T05:08:08;100840.31;;;-9.62;79.24
60089;BME280;45961;53.574;55.878;2023-01-27T05:09:10;100841.34;;;-9.60;79.20
60089;BME280;45961;53.574;55.878;2023-01-27T05:10:10;100845.75;;;-9.66;79.05
60089;BME280;45961;53.574;55.878;2023-01-27T05:11:11;100845.31;;;-9.62;79.09
60089;BME280;45961;53.574;55.878;2023-01-27T05:12:12;100840.03;;;-9.56;79.17
60089;BME280;45961;53.574;55.878;2023-01-27T05:13:13;100841.19;;;-9.53;78.92
60089;BME280;45961;53.574;55.878;2023-01-27T05:14:14;100846.81;;;-9.55;78.94
60089;BME280;45961;53.574;55.878;2023-01-27T05:15:15;100850.78;;;-9.57;78.90
60089;BME280;45961;53.574;55.878;2023-01-27T05:16:16;100853.44;;;-9.56;78.80
60089;BME280;45961;53.574;55.878;2023-01-27T05:17:17;100849.44;;;-9.54;78.67
60089;BME280;45961;53.574;55.878;2023-01-27T05:18:21;100855.66;;;-9.59;78.71
60089;BME280;45961;53.574;55.878;2023-01-27T05:19:23;100849.00;;;-9.58;78.68
60089;BME280;45961;53.574;55.878;2023-01-27T05:20:23;100850.94;;;-9.56;78.56
60089;BME280;45961;53.574;55.878;2023-01-27T05:21:25;100858.59;;;-9.63;78.39
60089;BME280;45961;53.574;55.878;2023-01-27T05:22:27;100853.28;;;-9.57;78.45
60089;BME280;45961;53.574;55.878;2023-01-27T05:23:28;100849.63;;;-9.52;78.44
60089;BME280;45961;53.574;55.878;2023-01-27T05:24:34;100850.63;;;-9.50;78.37
60089;BME280;45961;53.574;55.878;2023-01-27T05:25:35;100856.22;;;-9.53;78.34
60089;BME280;45961;53.574;55.878;2023-01-27T05:26:36;100845.06;;;-9.48;78.32
60089;BME280;45961;53.574;55.878;2023-01-27T05:27:37;100855.09;;;-9.48;78.33
60089;BME280;45961;53.574;55.878;2023-01-27T05:28:39;100856.41;;;-9.42;78.25
60089;BME280;45961;53.574;55.878;2023-01-27T05:29:40;100858.34;;;-9.40;78.11
60089;BME280;45961;53.574;55.878;2023-01-27T05:30:40;100857.91;;;-9.45;78.04
60089;BME280;45961;53.574;55.878;2023-01-27T05:31:41;100857.47;;;-9.40;77.97
60089;BME280;45961;53.574;55.878;2023-01-27T05:32:43;100853.59;;;-9.46;77.96
60089;BME280;45961;53.574;55.878;2023-01-27T05:33:44;100855.41;;;-9.36;78.10
60089;BME280;45961;53.574;55.878;2023-01-27T05:34:46;100856.41;;;-9.51;77.97
60089;BME280;45961;53.574;55.878;2023-01-27T05:35:47;100849.44;;;-9.54;78.01
60089;BME280;45961;53.574;55.878;2023-01-27T05:36:47;100853.03;;;-9.43;78.12
60089;BME280;45961;53.574;55.878;2023-01-27T05:37:49;100862.28;;;-9.51;77.93
60089;BME280;45961;53.574;55.878;2023-01-27T05:38:49;100863.63;;;-9.37;78.00